Terminal Aerodrome Forecast
Issued by NWS Jackson, MS

Home | Current Version | Previous Version | Text Only | Print | Product List | Glossary On
Versions: 1 2 3 4 5 6 7 8 9 10 11 12 13 14 15 16 17 18
254
FTUS44 KJAN 231740
TAFHBG
TAF
KHBG 231740Z 2318/2418 31005KT P6SM VCSH SCT010 BKN015 OVC025
     FM231900 33006KT P6SM VCSH SCT025 BKN040
     FM240800 30005KT P6SM SHRA BKN015
     FM241000 30005KT 4SM -RA OVC007
     FM241500 29010KT P6SM OVC015
     FM241700 29012KT P6SM OVC025=

USA.gov is the U.S. government's official web portal to all federal, state and local government web resources and services.